Time;durP1;ratioP1;P1;durP2;ratioP2;P2;SDS_P1;SDS_P2;PMS_P1;PMS_P2;Temp;Humidity;BMP_temperature;BMP_pressure;BME280_temperature;BME280_humidity;BME280_pressure;Samples;Min_cycle;Max_cycle;Signal;HPM_P1;HPM_P2
2021/12/20 00:01:10;;;;;;;25.13;18.73;;;2.90;99.90;;;3.89;97.84;98732.00;5198503;28;20562;-59
2021/12/20 00:03:43;;;;;;;25.67;19.20;;;2.90;99.90;;;3.92;97.73;98727.28;5190952;28;20196;-60
2021/12/20 00:06:16;;;;;;;25.20;19.43;;;2.90;99.90;;;3.92;97.66;98712.09;5196264;28;20229;-58
2021/12/20 00:08:51;;;;;;;28.03;19.07;;;2.90;99.90;;;3.97;97.33;98713.41;5188515;28;20195;-60
2021/12/20 00:11:24;;;;;;;24.53;18.10;;;2.90;99.90;;;3.84;97.47;98715.53;5192385;28;20205;-60
2021/12/20 00:13:57;;;;;;;26.87;19.90;;;2.90;99.90;;;3.77;97.93;98713.13;5195408;28;20207;-60
2021/12/20 00:16:30;;;;;;;26.27;19.40;;;3.00;99.90;;;3.74;98.53;98716.25;5197196;28;20256;-60
2021/12/20 00:19:04;;;;;;;26.43;19.07;;;3.00;99.90;;;3.76;98.92;98703.78;5193538;28;20235;-60
2021/12/20 00:21:37;;;;;;;27.17;19.70;;;3.00;99.90;;;3.82;98.43;98704.38;5192765;28;20219;-60
2021/12/20 00:24:11;;;;;;;29.20;19.67;;;2.90;99.90;;;3.86;97.97;98711.50;5190100;28;20198;-60
2021/12/20 00:26:44;;;;;;;25.33;19.20;;;2.90;99.90;;;3.72;98.35;98700.06;5194577;28;20239;-60
2021/12/20 00:29:17;;;;;;;27.13;19.10;;;2.90;99.90;;;3.72;98.60;98702.59;5193123;28;20629;-60
2021/12/20 00:31:50;;;;;;;26.47;18.80;;;3.00;99.90;;;3.75;98.89;98712.09;5191716;28;20209;-60
2021/12/20 00:34:23;;;;;;;23.97;18.40;;;3.00;99.90;;;3.81;98.67;98698.44;5195834;28;20588;-60
2021/12/20 00:37:03;;;;;;;26.73;18.10;;;3.00;99.90;;;3.80;98.55;98695.72;5197482;28;20229;-60
2021/12/20 00:42:28;;;;;;;28.37;20.17;;;3.00;99.90;;;3.74;98.36;98701.09;5188980;28;20690;-60
2021/12/20 00:45:01;;;;;;;24.67;18.90;;;3.00;99.90;;;3.73;98.84;98693.38;5203564;28;20219;-60
2021/12/20 00:47:34;;;;;;;28.40;19.23;;;3.00;99.90;;;3.78;98.75;98697.25;5196007;28;20673;-59
2021/12/20 00:50:10;;;;;;;30.50;20.33;;;3.00;99.90;;;3.76;98.80;98683.56;5196351;28;20212;-60
2021/12/20 00:52:45;;;;;;;28.07;19.03;;;3.00;99.90;;;3.73;98.93;98691.72;5187015;28;20681;-59
2021/12/20 00:55:21;;;;;;;27.67;20.10;;;3.00;99.90;;;3.72;99.24;98694.09;5192722;28;20700;-60
2021/12/20 00:57:57;;;;;;;26.27;18.30;;;3.00;99.90;;;3.75;99.29;98701.97;5194431;28;20319;-60
2021/12/20 01:00:33;;;;;;;29.23;20.73;;;3.00;99.90;;;3.73;99.32;98698.44;5196032;28;20201;-60
2021/12/20 01:03:08;;;;;;;27.87;19.03;;;3.10;99.90;;;3.72;99.41;98692.50;5193974;28;20198;-59
2021/12/20 01:05:42;;;;;;;29.43;20.10;;;3.00;99.90;;;3.70;99.37;98690.56;5195338;28;20599;-60
2021/12/20 01:08:16;;;;;;;25.23;18.47;;;3.00;99.90;;;3.66;99.84;98690.97;5195195;28;20213;-60
2021/12/20 01:10:54;;;;;;;27.17;19.47;;;3.00;99.90;;;3.67;99.75;98688.63;5193820;28;20196;-60
2021/12/20 01:13:29;;;;;;;26.50;20.10;;;3.00;99.90;;;3.69;99.61;98691.28;5192821;28;20198;-60
2021/12/20 01:16:05;;;;;;;30.83;20.63;;;3.00;99.90;;;3.67;99.66;98702.91;5198111;28;20236;-60
2021/12/20 01:18:38;;;;;;;29.40;20.60;;;3.00;99.90;;;3.71;99.80;98695.75;5193422;28;20230;-59
2021/12/20 01:21:11;;;;;;;31.20;20.87;;;3.00;99.90;;;3.72;99.67;98702.59;5197889;28;20200;-60
2021/12/20 01:23:44;;;;;;;28.60;19.40;;;3.00;99.90;;;3.73;99.71;98698.44;5197329;28;20215;-60
2021/12/20 01:26:19;;;;;;;28.13;20.17;;;3.00;99.90;;;3.72;99.93;98697.53;5202912;28;20228;-60
2021/12/20 01:28:52;;;;;;;33.60;21.37;;;3.00;99.90;;;3.76;100.00;98686.09;5199571;28;20647;-59
2021/12/20 01:31:25;;;;;;;30.70;21.33;;;3.00;99.90;;;3.76;100.00;98693.66;5199507;28;20206;-59
2021/12/20 01:33:58;;;;;;;29.53;20.27;;;3.10;99.90;;;3.76;99.88;98693.66;5205342;28;20209;-59
2021/12/20 01:36:31;;;;;;;30.40;20.93;;;3.10;99.90;;;3.82;99.66;98699.31;5204819;28;20680;-60
2021/12/20 01:39:06;;;;;;;31.63;21.20;;;3.00;99.90;;;3.84;99.42;98693.66;5204011;28;20222;-59
2021/12/20 01:41:42;;;;;;;31.10;21.50;;;3.00;99.90;;;3.78;99.56;98692.19;5201247;28;20193;-60
2021/12/20 01:44:15;;;;;;;32.87;21.03;;;3.00;99.90;;;3.76;99.88;98688.63;5193974;28;20210;-60
2021/12/20 01:46:48;;;;;;;30.07;20.57;;;3.00;99.90;;;3.80;100.00;98691.56;5202631;28;20697;-60
2021/12/20 01:49:21;;;;;;;29.40;21.23;;;3.10;99.90;;;3.86;99.72;98685.31;5201468;28;20209;-59
2021/12/20 01:52:04;;;;;;;31.73;21.30;;;3.10;99.90;;;3.86;99.79;98685.31;5196551;28;20200;-59
2021/12/20 01:54:37;;;;;;;30.73;20.63;;;3.10;99.90;;;3.85;99.88;98689.50;5200429;28;20535;-60
2021/12/20 01:57:12;;;;;;;33.17;21.73;;;3.10;99.90;;;3.80;100.00;98690.69;5205137;28;20229;-58
2021/12/20 01:59:45;;;;;;;30.60;21.77;;;3.10;99.90;;;3.72;100.00;98687.44;5201701;28;20206;-59
2021/12/20 02:02:18;;;;;;;30.03;20.33;;;3.10;99.90;;;3.73;100.00;98693.38;5202257;28;20195;-60
2021/12/20 02:04:52;;;;;;;29.00;20.30;;;3.10;99.90;;;3.73;100.00;98690.84;5199200;28;20588;-60
2021/12/20 02:07:36;;;;;;;30.87;21.33;;;3.10;99.90;;;3.78;100.00;98687.13;5190496;28;20222;-61
2021/12/20 02:10:09;;;;;;;31.50;22.20;;;3.10;99.90;;;3.83;100.00;98690.97;5200473;28;20205;-59
2021/12/20 02:12:44;;;;;;;32.83;21.83;;;3.10;99.90;;;3.81;100.00;98679.84;5197620;28;20208;-60
2021/12/20 02:15:18;;;;;;;30.50;21.03;;;3.10;99.90;;;3.81;100.00;98680.72;5203574;28;20226;-60
2021/12/20 02:17:51;;;;;;;29.10;21.30;;;3.10;99.90;;;3.83;100.00;98670.75;5196406;28;20685;-60
2021/12/20 02:20:27;;;;;;;31.50;21.20;;;3.10;99.90;;;3.86;100.00;98675.19;5200165;28;20293;-59
2021/12/20 02:23:03;;;;;;;28.90;20.90;;;3.10;99.90;;;3.91;99.88;98664.78;5198218;28;20202;-61
2021/12/20 02:25:37;;;;;;;27.87;19.83;;;3.10;99.90;;;3.95;99.65;98665.97;5196881;28;20229;-60
2021/12/20 02:28:13;;;;;;;30.13;20.60;;;3.10;99.90;;;3.92;99.85;98665.66;5199775;28;20201;-60
2021/12/20 02:36:52;;;;;;;27.73;19.23;;;3.10;99.90;;;3.89;99.89;98660.31;5198409;28;20568;-60
2021/12/20 02:37:16;;;;;;;32.23;20.17;;;3.10;99.90;;;3.81;100.00;98662.13;5196520;28;20221;-61
2021/12/20 02:39:49;;;;;;;29.23;20.03;;;3.10;99.90;;;3.80;100.00;98656.16;5199717;28;20231;-61
2021/12/20 02:42:28;;;;;;;29.57;20.07;;;3.10;99.90;;;3.81;100.00;98657.09;5201440;28;20567;-60
2021/12/20 02:45:10;;;;;;;29.40;20.13;;;3.10;99.90;;;3.80;100.00;98646.06;5195262;28;20232;-60
2021/12/20 02:47:47;;;;;;;31.47;21.03;;;3.10;99.90;;;3.75;100.00;98652.34;5196049;28;20201;-61
2021/12/20 02:50:20;;;;;;;33.10;20.87;;;3.10;99.90;;;3.78;100.00;98656.78;5195148;28;20204;-59
2021/12/20 02:52:55;;;;;;;30.60;21.40;;;3.10;99.90;;;3.81;100.00;98647.84;5198479;28;20376;-61
2021/12/20 02:55:28;;;;;;;34.13;22.53;;;3.10;99.90;;;3.87;100.00;98647.56;5199283;28;20303;-61
2021/12/20 02:58:01;;;;;;;35.67;23.50;;;3.10;99.90;;;3.90;100.00;98636.84;5203614;28;20228;-61
2021/12/20 03:00:34;;;;;;;35.37;23.33;;;3.10;99.90;;;3.91;100.00;98638.63;5193550;28;20204;-61
2021/12/20 03:03:08;;;;;;;36.07;23.67;;;3.10;99.90;;;3.94;99.94;98637.25;5203797;28;20615;-61
2021/12/20 03:05:41;;;;;;;37.37;23.27;;;3.10;99.90;;;3.98;99.90;98646.94;5194672;28;20696;-52
2021/12/20 03:08:16;;;;;;;35.70;22.97;;;3.10;99.90;;;3.97;100.00;98647.66;5203068;28;20207;-56
2021/12/20 03:10:50;;;;;;;36.33;23.97;;;3.20;99.90;;;3.89;100.00;98651.09;5191804;28;20590;-61
2021/12/20 03:13:23;;;;;;;38.90;24.87;;;3.10;99.90;;;3.84;100.00;98657.38;5203683;28;20201;-55
2021/12/20 03:15:56;;;;;;;37.73;24.37;;;3.10;99.90;;;3.81;100.00;98660.50;5197918;28;20236;-55
2021/12/20 03:18:29;;;;;;;34.87;22.77;;;3.10;99.90;;;3.86;100.00;98660.03;5201593;28;20233;-55
2021/12/20 03:21:02;;;;;;;34.80;22.80;;;3.10;99.90;;;3.87;100.00;98656.78;5201317;28;20290;-57
2021/12/20 03:23:37;;;;;;;37.17;23.83;;;3.20;99.90;;;3.90;100.00;98657.97;5200864;28;20208;-53
2021/12/20 03:26:10;;;;;;;34.47;21.77;;;3.20;99.90;;;3.91;100.00;98654.66;5199887;28;20727;-59
2021/12/20 03:28:43;;;;;;;33.67;21.50;;;3.20;99.90;;;3.93;100.00;98655.72;5204701;28;20194;-57
2021/12/20 03:31:16;;;;;;;35.20;22.30;;;3.20;99.90;;;3.95;100.00;98651.72;5198401;28;20212;-63
2021/12/20 03:33:49;;;;;;;36.17;22.50;;;3.20;99.90;;;4.02;100.00;98651.53;5203412;28;20205;-58
2021/12/20 03:36:22;;;;;;;34.27;23.23;;;3.20;99.90;;;4.04;100.00;98647.50;5190911;28;20229;-60
2021/12/20 03:38:57;;;;;;;33.57;21.90;;;3.20;99.90;;;4.01;100.00;98647.22;5194402;28;20225;-58
2021/12/20 03:41:31;;;;;;;32.63;21.80;;;3.20;99.90;;;3.95;100.00;98651.72;5195991;28;20202;-58
2021/12/20 03:44:05;;;;;;;35.63;22.80;;;3.20;99.90;;;3.97;100.00;98645.13;5202563;28;20202;-57
2021/12/20 03:46:39;;;;;;;34.20;22.70;;;3.20;99.90;;;3.91;100.00;98641.13;5195399;28;20257;-61
2021/12/20 03:49:12;;;;;;;35.47;22.80;;;3.20;99.90;;;3.90;100.00;98631.78;5195500;28;20204;-61
2021/12/20 03:51:45;;;;;;;34.97;23.10;;;3.20;99.90;;;3.87;100.00;98642.50;5195272;28;20665;-58
2021/12/20 03:54:20;;;;;;;37.57;23.57;;;3.20;99.90;;;3.91;100.00;98644.56;5197007;28;20202;-58
2021/12/20 03:56:53;;;;;;;35.87;23.73;;;3.10;99.90;;;3.98;100.00;98648.59;5196657;28;20193;-58
2021/12/20 03:59:28;;;;;;;35.43;23.47;;;3.10;99.90;;;3.94;99.95;98649.03;5196708;28;20229;-59
2021/12/20 04:02:02;;;;;;;34.27;22.27;;;3.10;99.90;;;3.92;100.00;98651.41;5197236;28;20331;-59
2021/12/20 04:04:35;;;;;;;36.07;23.40;;;3.10;99.90;;;3.96;100.00;98643.38;5190570;28;20210;-60
2021/12/20 04:07:08;;;;;;;33.73;21.83;;;3.10;99.90;;;3.93;100.00;98643.06;5200616;28;20209;-56
2021/12/20 04:09:43;;;;;;;32.27;21.73;;;3.10;99.90;;;3.91;100.00;98634.44;5194868;28;20570;-58
2021/12/20 04:12:16;;;;;;;38.13;22.67;;;3.10;99.90;;;3.96;100.00;98643.38;5192442;28;20204;-65
2021/12/20 04:14:49;;;;;;;36.80;21.97;;;3.20;99.90;;;4.01;100.00;98644.69;5195549;28;20222;-62
2021/12/20 04:17:22;;;;;;;32.87;21.57;;;3.10;99.90;;;3.97;100.00;98647.66;5200087;28;20207;-60
2021/12/20 04:19:55;;;;;;;35.50;21.80;;;3.10;99.90;;;4.02;100.00;98643.06;5199413;28;20270;-58
2021/12/20 04:22:28;;;;;;;34.63;22.73;;;3.20;99.90;;;4.05;99.85;98648.41;5198441;28;20221;-59
2021/12/20 04:25:04;;;;;;;33.30;22.47;;;3.10;99.90;;;4.08;99.56;98638.56;5200108;28;20590;-60
2021/12/20 04:27:38;;;;;;;35.90;22.73;;;3.10;99.90;;;4.06;99.44;98656.16;5197876;28;20267;-59
2021/12/20 04:30:12;;;;;;;32.17;20.73;;;3.20;99.90;;;4.06;99.80;98652.69;5196059;28;20649;-60
2021/12/20 04:32:47;;;;;;;36.20;23.17;;;3.20;99.90;;;4.12;99.61;98657.44;5201600;28;20201;-60
2021/12/20 04:35:20;;;;;;;33.70;22.10;;;3.20;99.90;;;4.00;99.72;98647.94;5203316;28;20227;-58
2021/12/20 04:37:54;;;;;;;33.67;22.03;;;3.20;99.90;;;3.99;99.94;98653.78;5199460;28;20667;-62
2021/12/20 04:40:28;;;;;;;37.27;23.43;;;3.20;99.90;;;4.00;100.00;98654.66;5195451;28;20228;-57
2021/12/20 04:43:01;;;;;;;32.53;21.67;;;3.20;99.90;;;3.99;100.00;98658.81;5195268;28;20219;-63
2021/12/20 04:45:36;;;;;;;37.57;22.63;;;3.20;99.90;;;4.00;100.00;98658.06;5190269;28;20226;-59
2021/12/20 04:48:10;;;;;;;35.87;23.07;;;3.30;99.90;;;3.91;100.00;98658.84;5195116;28;20210;-57
2021/12/20 04:50:43;;;;;;;36.10;23.33;;;3.20;99.90;;;3.87;100.00;98662.72;5200173;28;20664;-59
2021/12/20 04:53:16;;;;;;;34.07;23.10;;;3.20;99.90;;;3.94;100.00;98667.59;5198841;28;20569;-62
2021/12/20 04:55:50;;;;;;;37.27;23.63;;;3.20;99.90;;;4.03;100.00;98660.91;5191655;28;20222;-57
2021/12/20 04:58:24;;;;;;;38.50;24.23;;;3.20;99.90;;;4.06;100.00;98658.69;5194343;28;20229;-58
2021/12/20 05:00:57;;;;;;;36.33;23.50;;;3.20;99.90;;;4.07;100.00;98660.44;5199743;28;20657;-61
2021/12/20 05:03:30;;;;;;;34.60;23.37;;;3.20;99.90;;;4.11;100.00;98663.28;5196242;28;20294;-58
2021/12/20 05:06:03;;;;;;;35.87;23.00;;;3.20;99.90;;;4.11;99.85;98663.28;5194734;28;20579;-60
2021/12/20 05:08:47;;;;;;;39.53;23.97;;;3.30;99.90;;;4.10;100.00;98664.03;5191775;28;20729;-62
2021/12/20 05:11:22;;;;;;;35.70;23.07;;;3.30;99.90;;;4.05;100.00;98663.56;5196312;28;20787;-59
2021/12/20 05:13:55;;;;;;;38.80;23.27;;;3.30;99.90;;;4.06;100.00;98661.22;5193636;28;20197;-61
2021/12/20 05:16:28;;;;;;;37.67;23.73;;;3.30;99.90;;;4.04;100.00;98661.81;5198461;28;20701;-62
2021/12/20 05:19:01;;;;;;;40.00;24.47;;;3.30;99.90;;;4.04;100.00;98656.75;5196609;28;20226;-58
2021/12/20 05:21:35;;;;;;;38.57;23.80;;;3.30;99.90;;;4.00;100.00;98665.66;5191125;28;20205;-58
2021/12/20 05:24:08;;;;;;;35.73;22.47;;;3.30;99.90;;;4.00;100.00;98660.59;5198371;28;20198;-63
2021/12/20 05:26:43;;;;;;;33.37;22.03;;;3.30;99.90;;;4.03;100.00;98660.00;5196003;28;20229;-65
2021/12/20 05:29:16;;;;;;;38.17;24.20;;;3.30;99.90;;;4.03;100.00;98663.44;5198794;28;20201;-60
2021/12/20 05:31:49;;;;;;;38.83;23.60;;;3.30;99.90;;;4.07;100.00;98665.50;5194096;28;20669;-59
2021/12/20 05:34:23;;;;;;;38.23;23.17;;;3.30;99.90;;;4.10;100.00;98681.72;5191161;28;20641;-58
2021/12/20 05:36:56;;;;;;;37.87;22.20;;;3.30;99.90;;;4.10;100.00;98672.50;5201303;28;20215;-61
2021/12/20 05:39:29;;;;;;;37.47;23.40;;;3.30;99.90;;;4.09;100.00;98678.28;5198500;28;20224;-59
2021/12/20 05:42:04;;;;;;;41.57;24.00;;;3.30;99.90;;;4.03;100.00;98685.28;5194864;28;20240;-56
2021/12/20 05:44:37;;;;;;;38.77;23.07;;;3.30;99.90;;;4.09;100.00;98679.94;5192111;28;20596;-59
2021/12/20 05:47:11;;;;;;;36.10;23.13;;;3.40;99.90;;;4.03;100.00;98680.22;5192636;28;20213;-56
2021/12/20 05:49:44;;;;;;;38.13;23.00;;;3.40;99.90;;;4.06;100.00;98690.63;5194667;28;20682;-58
2021/12/20 05:52:17;;;;;;;36.60;22.60;;;3.30;99.90;;;4.06;100.00;98690.63;5198405;28;20205;-59
2021/12/20 05:54:51;;;;;;;38.70;23.43;;;3.30;99.90;;;4.05;100.00;98688.88;5193351;28;20229;-61
2021/12/20 05:57:25;;;;;;;40.70;23.77;;;3.30;99.90;;;4.00;100.00;98693.47;5199765;28;20214;-58
2021/12/20 05:59:58;;;;;;;40.63;23.73;;;3.30;99.90;;;4.06;99.69;98695.69;5197441;28;20221;-57
2021/12/20 06:02:31;;;;;;;40.60;24.50;;;3.30;99.90;;;4.03;99.47;98690.34;5191823;28;20206;-62
2021/12/20 06:05:06;;;;;;;38.67;24.10;;;3.30;99.90;;;4.06;99.55;98691.56;5192137;28;20221;-56
2021/12/20 06:07:41;;;;;;;39.37;24.20;;;3.20;99.90;;;4.10;99.13;98699.44;5192722;28;20705;-60
2021/12/20 06:10:18;;;;;;;34.77;21.60;;;3.20;99.90;;;4.18;98.37;98696.00;5197543;28;20202;-55
2021/12/20 06:12:53;;;;;;;34.83;22.60;;;3.20;99.90;;;4.13;98.14;98697.19;5203722;28;20193;-61
2021/12/20 06:15:26;;;;;;;34.30;21.83;;;3.20;99.90;;;4.11;98.32;98698.69;5198964;28;20303;-62
2021/12/20 06:17:59;;;;;;;36.43;22.90;;;3.20;99.90;;;4.10;98.65;98697.78;5199456;28;20569;-58
2021/12/20 06:20:33;;;;;;;34.87;21.57;;;3.20;99.90;;;4.12;98.15;98690.34;5192361;28;20245;-60
2021/12/20 06:23:06;;;;;;;31.80;21.30;;;3.20;99.90;;;4.12;97.98;98695.41;5197985;28;20658;-58
2021/12/20 06:25:39;;;;;;;30.63;20.47;;;3.10;99.90;;;4.11;97.88;98698.69;5199421;28;20237;-62
2021/12/20 06:28:13;;;;;;;34.00;21.37;;;3.10;99.90;;;4.09;97.81;98696.00;5192204;28;20216;-59
2021/12/20 06:30:47;;;;;;;33.20;20.93;;;3.10;99.90;;;4.18;97.46;98701.06;5198757;28;20213;-62
2021/12/20 06:33:21;;;;;;;32.30;20.93;;;3.10;99.90;;;4.17;97.08;98699.25;5202521;28;20285;-58
2021/12/20 06:35:54;;;;;;;32.57;21.60;;;3.10;99.90;;;4.12;97.28;98692.88;5201517;28;20214;-60
2021/12/20 06:38:27;;;;;;;35.10;21.60;;;3.10;99.90;;;4.11;97.33;98708.81;5192249;28;20202;-63
2021/12/20 06:41:00;;;;;;;34.93;22.70;;;3.10;99.90;;;4.02;97.59;98703.75;5194395;28;20222;-58
2021/12/20 06:43:35;;;;;;;36.20;21.43;;;3.20;99.90;;;4.00;98.18;98706.13;5202089;28;20198;-57
2021/12/20 06:46:08;;;;;;;35.63;21.77;;;3.20;99.90;;;3.99;98.24;98701.81;5199582;28;20229;-61
2021/12/20 06:48:41;;;;;;;34.03;22.03;;;3.20;99.90;;;4.00;98.20;98706.13;5197313;28;20210;-60
2021/12/20 06:51:14;;;;;;;31.17;21.00;;;3.20;99.90;;;4.02;98.09;98704.66;5194554;28;20212;-68
2021/12/20 06:53:47;;;;;;;36.23;23.27;;;3.10;99.90;;;4.00;97.90;98706.13;5194879;28;20204;-60
2021/12/20 06:56:20;;;;;;;34.90;23.20;;;3.20;99.90;;;3.94;98.57;98710.59;5194343;28;20236;-60
2021/12/20 06:58:55;;;;;;;37.17;22.87;;;3.20;99.90;;;3.92;98.88;98716.25;5192051;28;20665;-61
2021/12/20 07:01:28;;;;;;;32.57;20.93;;;3.20;99.90;;;3.95;98.70;98725.03;5194368;28;20225;-61
2021/12/20 07:04:02;;;;;;;33.47;21.53;;;3.20;99.90;;;3.97;98.62;98710.00;5189587;28;20207;-62
2021/12/20 07:06:36;;;;;;;36.17;22.83;;;3.20;99.90;;;3.95;98.34;98709.88;5204227;28;20634;-61
2021/12/20 07:09:09;;;;;;;36.17;23.10;;;3.20;99.90;;;3.96;98.65;98714.16;5195399;28;20201;-58
2021/12/20 07:11:43;;;;;;;35.63;21.93;;;3.20;99.90;;;4.03;98.17;98716.56;5198452;28;20197;-59
2021/12/20 07:14:19;;;;;;;35.47;22.57;;;3.20;99.90;;;4.02;97.93;98724.00;5203708;28;20206;-61
2021/12/20 07:16:52;;;;;;;33.37;21.47;;;3.20;99.90;;;3.98;97.89;98720.28;5203118;28;20538;-60
2021/12/20 07:19:25;;;;;;;34.53;21.57;;;3.20;99.90;;;3.94;98.22;98729.94;5198470;28;20212;-60
2021/12/20 07:21:58;;;;;;;38.87;23.33;;;3.10;99.90;;;3.94;98.06;98730.81;5194524;28;20223;-59
2021/12/20 07:24:31;;;;;;;38.00;23.00;;;3.20;99.90;;;4.02;97.76;98729.94;5200520;28;20212;-58
2021/12/20 07:27:05;;;;;;;34.23;22.03;;;3.20;99.90;;;4.04;96.96;98733.50;5197781;28;20652;-60
2021/12/20 07:29:39;;;;;;;36.60;22.67;;;3.20;99.90;;;3.98;97.55;98737.09;5194732;28;20203;-58
2021/12/20 07:32:13;;;;;;;39.57;23.67;;;3.30;99.90;;;3.99;97.78;98739.75;5198876;28;20206;-61
2021/12/20 07:34:46;;;;;;;37.17;22.50;;;3.20;99.90;;;3.99;97.79;98733.81;5198540;28;20594;-56
2021/12/20 07:37:19;;;;;;;35.70;21.90;;;3.20;99.90;;;3.97;97.90;98731.13;5199916;28;20201;-58
2021/12/20 07:39:52;;;;;;;35.97;22.13;;;3.20;99.90;;;3.97;98.15;98736.19;5195494;28;20313;-60
2021/12/20 07:42:25;;;;;;;38.33;24.33;;;3.20;99.90;;;3.96;98.05;98736.94;5200696;28;20208;-55
2021/12/20 07:45:04;;;;;;;38.23;23.70;;;3.20;99.90;;;4.00;97.98;98731.41;5195602;28;20221;-60
2021/12/20 07:47:51;;;;;;;36.20;21.97;;;3.30;99.90;;;3.98;98.22;98737.09;5198245;28;20570;-60
2021/12/20 07:50:25;;;;;;;41.53;25.73;;;3.20;99.90;;;4.00;98.25;98731.41;5199089;28;20570;-60
2021/12/20 07:52:58;;;;;;;43.70;25.90;;;3.30;99.90;;;4.02;98.50;98735.00;5205464;28;20201;-59
2021/12/20 07:55:32;;;;;;;114.03;73.37;;;3.30;99.90;;;4.05;98.75;98734.41;5201166;28;20309;-63
2021/12/20 07:58:05;;;;;;;206.93;128.50;;;3.30;99.90;;;4.06;98.75;98739.63;5198018;28;20199;-62
2021/12/20 08:00:40;;;;;;;57.10;33.80;;;3.30;99.90;;;4.07;98.74;98738.88;5197463;28;20229;-58
2021/12/20 08:03:13;;;;;;;45.67;26.87;;;3.30;99.90;;;4.15;98.26;98741.22;5194865;28;20238;-64
2021/12/20 08:05:46;;;;;;;42.70;24.73;;;3.30;99.90;;;4.18;98.38;98732.31;5203147;28;20225;-61
2021/12/20 08:08:19;;;;;;;41.47;23.67;;;3.40;99.90;;;4.22;98.09;98733.50;5198531;28;20209;-61
2021/12/20 08:10:54;;;;;;;36.17;21.70;;;3.40;99.90;;;4.25;97.64;98733.78;5193697;28;20220;-61
2021/12/20 08:13:27;;;;;;;34.63;21.10;;;3.40;99.90;;;4.29;97.68;98735.84;5192822;28;20641;-60
2021/12/20 08:16:01;;;;;;;38.60;22.83;;;3.40;99.90;;;4.35;97.29;98738.06;5193792;28;20229;-64
2021/12/20 08:18:34;;;;;;;41.17;23.20;;;3.50;99.90;;;4.35;97.08;98741.50;5189624;28;20201;-63
2021/12/20 08:21:08;;;;;;;39.90;24.10;;;3.50;99.90;;;4.25;96.94;98738.84;5199539;28;20228;-62
2021/12/20 08:23:43;;;;;;;40.00;23.67;;;3.40;99.90;;;4.33;96.92;98737.94;5194252;28;20203;-63
2021/12/20 08:26:17;;;;;;;38.77;24.93;;;3.50;99.90;;;4.35;96.86;98741.50;5190797;28;20227;-64
2021/12/20 08:28:51;;;;;;;42.30;25.07;;;3.50;99.90;;;4.34;96.97;98744.78;5193115;28;20212;-64
2021/12/20 08:31:25;;;;;;;38.47;25.17;;;3.50;99.90;;;4.34;96.79;98738.81;5195403;28;20202;-60
2021/12/20 08:33:58;;;;;;;38.27;23.77;;;3.50;99.90;;;4.31;97.24;98747.00;5195144;28;20646;-61
2021/12/20 08:36:32;;;;;;;38.77;25.03;;;3.50;99.90;;;4.34;96.91;98742.25;5191628;28;20313;-61
2021/12/20 08:39:05;;;;;;;41.50;25.03;;;3.60;99.90;;;4.40;97.09;98745.34;5194241;28;20758;-54
2021/12/20 08:41:38;;;;;;;40.73;25.93;;;3.60;99.90;;;4.38;96.46;98756.06;5195050;28;20229;-55
2021/12/20 08:44:11;;;;;;;38.20;24.27;;;3.50;99.90;;;4.37;97.07;98755.19;5201579;28;20198;-64
2021/12/20 08:46:46;;;;;;;43.33;24.87;;;3.60;99.90;;;4.38;96.66;98751.94;5192320;28;20222;-62
2021/12/20 08:49:19;;;;;;;38.40;23.90;;;3.60;99.90;;;4.34;96.64;98759.06;5194822;28;20197;-61
2021/12/20 08:51:54;;;;;;;43.73;25.93;;;3.60;99.90;;;4.33;96.71;98759.81;5198018;28;20633;-62
2021/12/20 08:54:29;;;;;;;43.00;25.97;;;3.50;99.90;;;4.40;96.37;98760.53;5189551;28;20570;-62
2021/12/20 08:57:02;;;;;;;48.97;30.33;;;3.50;99.90;;;4.36;96.53;98762.66;5194312;28;20204;-60
2021/12/20 08:59:35;;;;;;;41.93;27.47;;;3.60;99.90;;;4.42;96.46;98763.22;5194852;28;20206;-62
2021/12/20 09:02:11;;;;;;;44.23;26.23;;;3.60;99.90;;;4.46;96.79;98765.28;5203233;28;20681;-60
2021/12/20 09:04:44;;;;;;;46.87;26.77;;;3.60;99.90;;;4.47;96.63;98767.97;5202535;28;20209;-65
2021/12/20 09:07:17;;;;;;;43.70;26.10;;;3.70;99.90;;;4.55;96.54;98772.84;5199551;28;20210;-65
2021/12/20 09:09:51;;;;;;;42.40;25.97;;;3.70;99.90;;;4.57;96.49;98777.31;5202612;28;20207;-64
2021/12/20 09:12:24;;;;;;;43.70;25.80;;;3.70;99.90;;;4.60;96.24;98775.06;5196879;28;20206;-62
2021/12/20 09:14:57;;;;;;;42.67;24.37;;;3.80;99.90;;;4.67;96.40;98774.03;5188327;28;20233;-57
2021/12/20 09:17:32;;;;;;;46.27;25.73;;;3.90;99.90;;;4.77;95.99;98774.13;5195508;28;20650;-62
2021/12/20 09:20:06;;;;;;;44.70;25.73;;;3.90;99.90;;;4.73;96.02;98772.09;5194622;28;20297;-59
2021/12/20 09:22:50;;;;;;;49.47;26.37;;;3.90;99.90;;;4.82;96.50;98770.41;5193696;28;20304;-63
2021/12/20 09:25:26;;;;;;;44.57;24.40;;;4.00;99.90;;;4.86;96.18;98779.19;5189932;28;20763;-62
2021/12/20 09:28:02;;;;;;;49.30;25.33;;;4.00;99.90;;;4.87;94.76;98780.97;5185817;28;20206;-62
2021/12/20 09:30:36;;;;;;;46.63;25.20;;;4.00;99.90;;;4.80;95.22;98774.44;5191761;28;20202;-62
2021/12/20 09:33:11;;;;;;;42.50;24.30;;;4.00;99.90;;;4.86;95.36;98777.53;5192944;28;20203;-64
2021/12/20 09:35:44;;;;;;;49.10;25.43;;;4.00;99.90;;;4.96;95.30;98777.66;5190697;28;20253;-62
2021/12/20 09:38:19;;;;;;;49.53;26.13;;;4.10;99.90;;;5.15;94.35;98769.22;5195449;28;20721;-60
2021/12/20 09:43:52;;;;;;;44.07;25.27;;;4.30;99.90;;;5.27;94.38;98780.50;5180682;28;20663;-62
2021/12/20 09:46:29;;;;;;;43.60;24.20;;;4.40;99.90;;;5.30;94.27;98778.25;5199535;28;20725;-62
2021/12/20 09:49:05;;;;;;;46.43;25.53;;;4.40;99.90;;;5.34;94.71;98776.88;5199495;28;20198;-63
2021/12/20 09:51:38;;;;;;;42.50;23.53;;;4.50;99.90;;;5.40;94.81;98773.25;5198348;28;20209;-63
2021/12/20 09:54:11;;;;;;;38.90;22.27;;;4.60;99.90;;;5.41;93.56;98775.06;5199602;28;20733;-61
2021/12/20 09:56:45;;;;;;;39.43;21.97;;;4.60;99.90;;;5.29;93.26;98771.38;5198818;28;20222;-63
2021/12/20 09:59:20;;;;;;;37.27;20.83;;;4.50;99.90;;;5.41;92.87;98769.09;5206424;28;20216;-62
2021/12/20 10:01:54;;;;;;;39.60;22.47;;;4.50;99.90;;;5.42;93.29;98771.75;5202703;28;20209;-61
2021/12/20 10:04:29;;;;;;;42.00;24.50;;;4.60;99.90;;;5.48;93.11;98768.00;5206263;28;20573;-63
2021/12/20 10:07:02;;;;;;;37.73;22.67;;;4.70;99.90;;;5.67;93.44;98768.06;5206366;28;20206;-61
2021/12/20 10:09:37;;;;;;;40.47;23.77;;;4.80;99.90;;;5.92;91.56;98764.41;5208957;28;20208;-61
2021/12/20 10:12:12;;;;;;;35.00;21.90;;;5.10;99.90;;;5.94;90.67;98769.66;5206005;28;20193;-61
2021/12/20 10:15:03;;;;;;;34.93;21.33;;;5.20;99.90;;;6.07;90.23;98768.38;5206122;28;20224;-62
2021/12/20 10:17:55;;;;;;;34.00;21.07;;;5.20;99.90;;;6.43;87.35;98764.72;5200175;28;20293;-58
2021/12/20 10:20:32;;;;;;;34.80;21.20;;;5.40;99.90;;;6.51;84.45;98762.88;5199853;28;20297;-63
2021/12/20 10:23:13;;;;;;;31.73;18.87;;;5.60;99.90;;;6.44;85.35;98758.00;5200011;28;20247;-59
2021/12/20 10:25:52;;;;;;;29.73;18.77;;;5.60;99.90;;;6.53;86.02;98762.25;5200531;28;20304;-60
2021/12/20 10:28:35;;;;;;;31.50;18.67;;;5.60;99.90;;;6.82;84.11;98757.91;5198960;28;20190;-62
2021/12/20 10:31:11;;;;;;;33.70;19.40;;;5.90;99.90;;;6.99;84.27;98761.13;5196240;28;20193;-60
2021/12/20 10:33:52;;;;;;;33.73;20.30;;;6.00;99.90;;;7.09;85.18;98757.72;5196505;28;20198;-60
2021/12/20 10:36:27;;;;;;;31.33;19.67;;;6.10;99.90;;;7.16;81.63;98760.03;5192169;28;20218;-60
2021/12/20 10:39:04;;;;;;;30.57;18.30;;;6.20;99.90;;;7.23;82.81;98751.25;5191963;28;20205;-60
2021/12/20 10:41:39;;;;;;;28.67;19.47;;;6.30;99.90;;;7.38;82.38;98750.03;5192882;28;20202;-60
2021/12/20 10:44:17;;;;;;;30.13;19.80;;;6.40;99.90;;;7.49;82.15;98748.34;5197280;28;20673;-61
2021/12/20 10:46:53;;;;;;;28.00;18.17;;;6.60;99.90;;;7.77;80.22;98740.47;5195604;28;20701;-63
2021/12/20 10:49:29;;;;;;;23.20;16.27;;;6.80;99.90;;;8.11;76.20;98737.34;5195026;28;20292;-61
2021/12/20 10:52:05;;;;;;;25.03;16.80;;;7.10;99.90;;;8.15;73.87;98735.91;5197596;28;20208;-61
2021/12/20 10:54:44;;;;;;;20.63;13.77;;;7.40;99.90;;;8.01;72.57;98739.94;5195611;28;20217;-58
2021/12/20 10:57:28;;;;;;;21.77;15.97;;;7.40;99.90;;;8.02;71.72;98735.72;5197368;28;20206;-61